TAF Text Data
IDs:
Format:
Raw Decoded Include METAR

Data at: 1354 UTC 20 Oct 2018

Region: TOP
KATL 201153Z 2012/2118 23004KT P6SM VCSH SCT006 BKN035
  TEMPO 2012/2014 4SM -RA BR BKN006
  FM201500 29007KT P6SM -RA BKN015
  FM202100 30011G19KT P6SM SCT025 SCT100
  FM210000 33013G22KT P6SM SKC
  FM211400 01008KT P6SM SKC


KBOS 201122Z 2012/2118 21012G22KT P6SM OVC050
  FM201900 25010G20KT P6SM SCT050
  FM202100 27010KT P6SM SCT050
  FM210400 30008KT P6SM BKN050
  FM211300 32015G25KT P6SM SCT050


KBWI 201120Z 2012/2118 24007KT P6SM OVC060
  FM201900 27010KT P6SM SCT040
  FM210200 28010G22KT P6SM SCT080
  FM210900 31021G33KT P6SM SCT030
  FM211400 32021G33KT P6SM SCT250


KCLE 201348Z 2014/2118 23014KT P6SM BKN012
  FM201600 26014G25KT P6SM SCT012 BKN025
  FM202000 29018G28KT 3SM -SHRA SCT012 OVC025
  FM210000 32025G34KT P6SM VCSH OVC025


KCLT 201159Z 2012/2118 22005KT P6SM BKN012 BKN080 BKN200
  FM201300 23008KT P6SM VCSH SCT080 BKN100
  TEMPO 2014/2017 4SM -SHRA BR OVC025
  FM201900 26008G16KT P6SM BKN040
  FM202100 26008KT P6SM SCT250
  FM210200 32012KT P6SM FEW250


KCVG 201137Z 2012/2118 24008KT P6SM OVC008
  TEMPO 2012/2013 4SM -DZ BR OVC004
  FM201600 27010KT P6SM SCT025
  FM201900 28017G25KT P6SM BKN050
  FM202100 29019G29KT P6SM -SHRA BKN050
  FM210000 32023G36KT P6SM SCT040
  FM210400 32015G25KT P6SM BKN025
  FM210800 32009KT P6SM BKN025
  FM211300 32008KT P6SM SCT025


KDCA 201120Z 2012/2118 23007KT P6SM OVC040
  FM201700 27008KT P6SM BKN040
  FM202200 28008KT P6SM SCT045
  FM210400 29020G34KT P6SM SCT080
  FM210800 32022G35KT P6SM SCT080


KDEN 201131Z 2012/2118 22010KT P6SM SKC
  FM201600 30006KT P6SM SKC
  FM201900 12010KT P6SM SKC
  FM210200 18010KT P6SM SKC
  FM210700 22012KT P6SM SKC
  FM211600 30010KT P6SM SKC


KDFW 201329Z 2013/2118 01009KT P6SM FEW008 SCT022
  TEMPO 2014/2016 3SM BR BKN007
  FM201600 01012KT P6SM BKN015
  FM201700 02015KT P6SM BKN300
  FM210100 01008KT P6SM SCT300


KDTW 201258Z 2013/2118 24011KT P6SM FEW020 BKN070
  FM201600 28013G22KT P6SM BKN050
  FM201900 30015G25KT P6SM -RA BKN035
  FM210000 32013G20KT P6SM BKN035
  FM210600 30011KT P6SM BKN020
  FM211400 29010KT P6SM BKN040


KEWR 201306Z 2013/2118 23011KT P6SM SCT012 BKN040
  TEMPO 2013/2014 6SM -DZ BKN012
  FM201400 24012G20KT P6SM SCT015 BKN050
  FM201800 26014G22KT P6SM BKN060
  FM202200 28012G20KT P6SM BKN150
  FM210100 27010KT P6SM VCSH BKN060
  FM210600 27007KT P6SM BKN060
  FM210800 31013G23KT P6SM SCT060 BKN120
  FM211400 32020G30KT P6SM FEW060 SCT120


KFLL 201122Z 2012/2118 VRB05KT P6SM FEW025 BKN060
  FM201800 11007KT P6SM SCT025 SCT250
  FM210000 VRB04KT P6SM FEW025 SCT250


KIAD 201120Z 2012/2118 24006KT P6SM OVC050
  FM201600 28008KT P6SM BKN040
  FM202000 28009KT P6SM SCT045
  FM210200 28010G20KT P6SM SCT110
  FM210500 29016G24KT P6SM SCT100
  FM210700 30020G30KT P6SM SCT090


KIAH 201225Z 2012/2118 35006KT P6SM BKN005 OVC080
  TEMPO 2012/2014 -RA
  FM201500 35008KT P6SM VCSH BKN012 OVC025
  FM202000 01007G17KT P6SM BKN025 BKN050
  FM210300 02011KT P6SM SCT025 SCT250
  FM210800 02008KT P6SM SCT250
  FM211300 04010KT P6SM SCT250


KJFK 201133Z 2012/2118 24016G24KT P6SM SCT015 BKN040
  TEMPO 2012/2015 BKN015
  FM201900 26015G22KT P6SM BKN060
  FM202200 27013G21KT P6SM BKN060 BKN150
  FM210100 28012KT P6SM VCSH BKN060
  FM210600 28010KT P6SM BKN060
  FM210800 30013G25KT P6SM SCT060 BKN150
  FM211400 31023G32KT P6SM FEW060 SCT150


KLAS 201137Z 2012/2118 VRB04KT P6SM SKC
  FM201700 03009KT P6SM SCT080
  FM202300 VRB04KT P6SM BKN080
  FM210600 25005KT P6SM VCSH OVC070


KLAX 201137Z 2012/2118 08006KT P6SM SKC
  FM201900 25012KT P6SM SKC
  FM210400 VRB03KT P6SM SCT120


KLGA 201133Z 2012/2118 24016G22KT P6SM SCT015 BKN040
  TEMPO 2012/2015 BKN015
  FM201800 27013G21KT P6SM BKN060
  FM202200 28013G21KT P6SM BKN060 BKN150
  FM210100 28010KT P6SM VCSH BKN060
  FM210600 28009KT P6SM BKN060
  FM210800 30015G25KT P6SM SCT060 BKN120
  FM211400 32021G31KT P6SM FEW060 SCT120


KMCO 201123Z 2012/2118 00000KT P6SM FEW002 FEW020
  FM201400 25005KT P6SM SCT040
  FM202000 32006KT P6SM VCSH SCT040 BKN100
  FM210300 28004KT P6SM FEW050 SCT250
  FM211400 02012G18KT P6SM SCT040 BKN080


KMDW 201120Z 2012/2118 27011KT P6SM SKC
  FM201300 28015G23KT P6SM FEW060
  FM201500 32025G37KT P6SM OVC060
  TEMPO 2017/2019 4SM -SHRAGS SCT025 OVC040
  FM201900 33020G32KT P6SM SCT060
  FM202300 33014G21KT P6SM FEW060
  FM210200 32008KT P6SM SKC
  FM211300 23008KT P6SM FEW120


KMEM 201120Z 2012/2118 34006KT P6SM VCSH BKN020
  FM201400 34008KT P6SM SCT025
  FM201600 34010G17KT P6SM SKC
  FM210000 01010KT P6SM SKC
  FM211200 04006KT P6SM SKC


KMIA 201122Z 2012/2118 VRB05KT P6SM SCT060
  FM201800 12007KT P6SM SCT025 SCT250
  FM210000 VRB04KT P6SM FEW025 SCT250


KMSP 201351Z 2014/2118 31021G35KT P6SM FEW025 BKN040
  TEMPO 2014/2015 3SM -SHSN BKN025 OVC040
  FM201700 32019G27KT P6SM SKC
  FM202300 31009KT P6SM SKC
  FM210300 VRB03KT P6SM SKC
  FM210800 18006KT P6SM SKC


KORD 201120Z 2012/2118 27011KT P6SM SKC
  FM201300 28015G23KT P6SM FEW060
  FM201500 32025G37KT P6SM OVC060
  TEMPO 2017/2019 4SM -SHRAGS SCT025 OVC040
  FM201900 33020G32KT P6SM SCT060
  FM202300 33014G21KT P6SM FEW060
  FM210200 32008KT P6SM SKC
  FM211300 23008KT P6SM FEW120


KPDX 201132Z 2012/2112 VRB03KT P6SM VCFG SCT009
  TEMPO 2012/2016 1/2SM FG OVC002
  FM201900 33006KT P6SM SCT350


KPHL 201130Z 2012/2118 24008KT P6SM SCT015 OVC035
  TEMPO 2012/2016 OVC015
  FM201600 27010KT P6SM BKN040
  FM202000 27008KT P6SM SCT040
  FM210200 27010KT P6SM SCT040 BKN080
  FM210800 32014G22KT P6SM BKN040
  FM211300 32018G28KT P6SM SCT040


KPHX 201136Z 2012/2118 08012KT P6SM BKN090 WS015/12032KT
  FM201700 11014G25KT P6SM SCT070 BKN250
  FM210100 10012KT P6SM VCTS BKN080CB BKN250
  FM210800 09010KT P6SM VCSH BKN080 BKN120 BKN250 WS020/11030KT
  FM211700 10012G18KT P6SM VCSH SCT060 BKN120 BKN250


KPIT 201131Z 2012/2118 25010KT P6SM OVC007
  FM201400 24010G20KT P6SM OVC010
  FM201500 26012G22KT P6SM BKN025
  FM201700 27015G25KT P6SM VCSH BKN035
  FM202100 29015G30KT 5SM -SHRA OVC035
  FM210400 31015G25KT P6SM VCSH BKN025


KSAN 201120Z 2012/2118 VRB03KT P6SM SKC
  FM202000 27008KT P6SM FEW080
  FM210200 19005KT P6SM SCT006 SCT080
  FM210900 17005KT 2SM BR BKN004
  FM211500 VRB03KT 6SM HZ SCT005


KSEA 201344Z 2014/2118 02006KT 4SM BR BKN004
  FM202000 35006KT P6SM SKC
  FM210900 01004KT 3SM BR SCT003
  FM211300 01004KT 1/4SM FG VV001


KSFO 201127Z 2012/2118 VRB04KT P6SM FEW003
  TEMPO 2014/2016 SCT003
  FM202100 30010KT P6SM SKC
  FM210430 29006KT P6SM FEW006
  FM210900 VRB03KT P6SM SCT005


KSLC 201120Z 2012/2118 15006KT P6SM SKC
  FM202000 32007KT P6SM SKC
  FM210300 15005KT P6SM SCT120


KSTL 201142Z 2012/2118 29007KT P6SM SKC
  FM201700 31014G25KT P6SM SKC
  FM201900 32018G30KT P6SM FEW060
  FM202300 34013G23KT P6SM FEW060
  FM210200 35006KT P6SM SKC


KTPA 201138Z 2012/2118 10005KT P6SM FEW200
  FM201600 24006KT P6SM FEW035 SCT200
  FM202200 31007KT P6SM SCT035 SCT200
  FM211200 02008KT P6SM FEW020 SCT050